Terminal Aerodrome Forecast
Issued by NWS Charleston, WV

Current Version | Previous Version | Graphics & Text | Print | Product List | Glossary On
Versions: 1 2 3 4 5 6 7 8 9 10 11 12 13 14 15 16 17 18 19 20 21 22 23 24 25
000
FTUS41 KRLX 210500
TAFPKB
TAF
KPKB 210534Z 2106/2206 00000KT 6SM BR FEW001 BKN035
     FM210800 00000KT 3SM BR SCT001
     FM211000 00000KT 1/2SM FG BKN001
     FM211200 00000KT 3SM BR SCT002 SCT090
     FM211300 00000KT P6SM FEW003 SCT070
     FM211500 00000KT P6SM BKN250
     FM220300 00000KT 6SM BR SCT250=

USA.gov is the U.S. government's official web portal to all federal, state and local government web resources and services.